createdAt,value
2018-02-17T00:02:11.305Z,524.55
2018-02-17T00:04:38.767Z,528.17
2018-02-17T00:07:07.023Z,532.80
2018-02-17T00:09:34.891Z,522.37
2018-02-17T00:12:02.359Z,531.87
2018-02-17T00:14:29.928Z,564.67
2018-02-17T00:16:57.383Z,543.25
2018-02-17T00:19:24.955Z,543.75
2018-02-17T00:21:53.207Z,526.37
2018-02-17T00:24:20.663Z,519.62
2018-02-17T00:26:48.226Z,523.58
2018-02-17T00:29:15.682Z,526.37
2018-02-17T00:31:43.151Z,546.92
2018-02-17T00:34:10.603Z,543.13
2018-02-17T00:36:38.164Z,548.58
2018-02-17T00:39:05.668Z,533.55
2018-02-17T00:41:33.135Z,537.05
2018-02-17T00:44:00.595Z,550.87
2018-02-17T00:46:28.097Z,534.35
2018-02-17T00:48:55.553Z,558.40
2018-02-17T00:51:23.110Z,526.20
2018-02-17T00:53:50.680Z,472.50
2018-02-17T00:56:18.135Z,462.20
2018-02-17T00:58:45.583Z,460.93
2018-02-17T01:01:13.035Z,451.80
2018-02-17T01:03:40.487Z,447.57
2018-02-17T01:06:07.966Z,447.50
2018-02-17T01:08:35.423Z,450.03
2018-02-17T01:11:02.926Z,447.87
2018-02-17T01:13:30.326Z,455.10
2018-02-17T01:15:57.796Z,450.30
2018-02-17T01:18:25.243Z,448.00
2018-02-17T01:20:52.699Z,447.20
2018-02-17T01:23:20.175Z,450.10
2018-02-17T01:25:47.627Z,449.90
2018-02-17T01:28:15.165Z,467.90
2018-02-17T01:30:42.607Z,451.70
2018-02-17T01:33:10.098Z,450.73
2018-02-17T01:35:37.567Z,450.77
2018-02-17T01:38:05.015Z,456.53
2018-02-17T01:40:32.575Z,467.50
2018-02-17T01:43:00.015Z,454.43
2018-02-17T01:45:27.479Z,519.62
2018-02-17T01:47:54.951Z,493.90
2018-02-17T01:50:32.341Z,478.93
2018-02-17T01:52:59.791Z,408.73
2018-02-17T01:55:27.239Z,403.43
2018-02-17T01:57:54.695Z,405.97
2018-02-17T02:00:22.166Z,443.00
2018-02-17T02:02:49.729Z,441.90
2018-02-17T02:05:17.189Z,477.50
2018-02-17T02:07:44.646Z,456.83
2018-02-17T02:10:12.199Z,546.37
2018-02-17T02:12:40.279Z,558.75
2018-02-17T02:15:07.731Z,543.67
2018-02-17T02:17:35.191Z,551.60
2018-02-17T02:20:02.826Z,538.25
2018-02-17T02:22:30.345Z,495.35
2018-02-17T02:24:58.665Z,486.57
2018-02-17T02:27:26.116Z,493.75
2018-02-17T02:29:53.599Z,491.80
2018-02-17T02:32:21.161Z,489.35
2018-02-17T02:34:48.715Z,497.13
2018-02-17T02:37:16.275Z,498.13
2018-02-17T02:39:44.010Z,496.30
2018-02-17T02:42:11.496Z,496.60
2018-02-17T02:44:38.959Z,496.55
2018-02-17T02:47:06.414Z,521.25
2018-02-17T02:49:33.876Z,481.63
2018-02-17T02:52:01.426Z,480.40
2018-02-17T02:54:28.871Z,481.35
2018-02-17T02:56:56.442Z,484.50
2018-02-17T02:59:23.891Z,483.90
2018-02-17T03:01:51.358Z,478.58
2018-02-17T03:04:18.810Z,517.22
2018-02-17T03:06:46.366Z,517.03
2018-02-17T03:09:14.130Z,532.58
2018-02-17T03:11:41.594Z,543.60
2018-02-17T03:14:09.042Z,534.60
2018-02-17T03:16:36.494Z,539.08
2018-02-17T03:19:03.939Z,543.63
2018-02-17T03:21:31.418Z,547.72
2018-02-17T03:23:58.878Z,528.17
2018-02-17T03:26:26.321Z,527.62
2018-02-17T03:28:54.318Z,527.80
2018-02-17T03:31:21.776Z,522.95
2018-02-17T03:33:49.318Z,519.85
2018-02-17T03:36:17.186Z,524.65
2018-02-17T03:38:44.646Z,522.67
2018-02-17T03:41:12.102Z,520.10
2018-02-17T03:43:39.554Z,510.13
2018-02-17T03:46:07.023Z,503.55
2018-02-17T03:48:34.570Z,507.40
2018-02-17T03:51:03.165Z,503.60
2018-02-17T03:53:31.430Z,503.15
2018-02-17T03:55:58.965Z,505.83
2018-02-17T03:58:26.410Z,507.25
2018-02-17T04:00:54.258Z,507.90
2018-02-17T04:03:21.719Z,503.33
2018-02-17T04:05:49.181Z,508.15
2018-02-17T04:08:17.395Z,510.15
2018-02-17T04:10:44.847Z,507.27
2018-02-17T04:13:12.410Z,506.65
2018-02-17T04:15:39.966Z,502.40
2018-02-17T04:18:07.536Z,512.20
2018-02-17T04:20:35.096Z,509.75
2018-02-17T04:23:02.642Z,506.30
2018-02-17T04:25:30.596Z,509.05
2018-02-17T04:27:58.051Z,506.65
2018-02-17T04:30:25.512Z,502.55
2018-02-17T04:32:52.961Z,509.85
2018-02-17T04:35:20.415Z,504.05
2018-02-17T04:37:47.874Z,504.67
2018-02-17T04:40:21.076Z,499.60
2018-02-17T04:42:54.350Z,501.52
2018-02-17T04:45:21.811Z,503.67
2018-02-17T04:47:54.087Z,503.35
2018-02-17T04:50:21.530Z,502.02
2018-02-17T04:52:54.634Z,506.02
2018-02-17T04:55:27.771Z,503.70
2018-02-17T04:57:57.942Z,503.50
2018-02-17T05:00:29.395Z,498.37
2018-02-17T05:06:13.998Z,501.33
2018-02-17T05:08:49.758Z,501.25
2018-02-17T05:11:17.217Z,500.92
2018-02-17T05:13:44.674Z,498.05
2018-02-17T05:16:25.007Z,505.17
2018-02-17T05:21:56.114Z,500.30
2018-02-17T05:24:24.343Z,502.30
2018-02-17T05:26:54.243Z,505.80
2018-02-17T05:29:33.542Z,506.37
2018-02-17T05:32:15.874Z,508.15
2018-02-17T05:34:49.890Z,498.20
2018-02-17T05:37:17.344Z,506.17
2018-02-17T05:39:54.689Z,506.92
2018-02-17T05:42:25.483Z,509.80
2018-02-17T05:44:56.973Z,516.97
2018-02-17T05:47:26.639Z,519.28
2018-02-17T05:49:55.815Z,521.50
2018-02-17T05:52:23.299Z,520.85
2018-02-17T05:54:50.759Z,518.30
2018-02-17T05:57:18.519Z,523.15
2018-02-17T05:59:45.992Z,520.42
2018-02-17T06:02:13.430Z,514.83
2018-02-17T06:04:40.889Z,521.10
2018-02-17T06:07:08.442Z,515.97
2018-02-17T06:09:35.903Z,520.08
2018-02-17T06:12:03.370Z,517.42
2018-02-17T06:14:30.822Z,514.85
2018-02-17T06:16:58.283Z,515.67
2018-02-17T06:19:25.748Z,515.50
2018-02-17T06:21:53.197Z,514.10
2018-02-17T06:24:22.162Z,515.17
2018-02-17T06:26:49.610Z,514.53
2018-02-17T06:29:17.169Z,515.75
2018-02-17T06:31:44.612Z,517.60
2018-02-17T06:34:12.182Z,521.63
2018-02-17T06:36:39.619Z,516.38
2018-02-17T06:39:07.087Z,513.40
2018-02-17T06:41:34.573Z,517.08
2018-02-17T06:44:02.030Z,515.33
2018-02-17T06:46:29.568Z,516.22
2018-02-17T06:48:57.018Z,510.67
2018-02-17T06:51:24.508Z,513.58
2018-02-17T06:53:52.060Z,515.50
2018-02-17T06:56:19.518Z,514.28
2018-02-17T06:58:47.069Z,528.38
2018-02-17T07:01:14.539Z,526.90
2018-02-17T07:03:42.003Z,525.38
2018-02-17T07:06:09.462Z,528.92
2018-02-17T07:08:37.005Z,532.40
2018-02-17T07:11:04.465Z,528.00
2018-02-17T07:13:31.914Z,527.37
2018-02-17T07:15:59.457Z,528.90
2018-02-17T07:18:26.902Z,532.75
2018-02-17T07:20:54.398Z,531.80
2018-02-17T07:23:21.854Z,530.80
2018-02-17T07:25:49.409Z,542.25
2018-02-17T07:28:17.548Z,540.35
2018-02-17T07:30:45.003Z,541.75
2018-02-17T07:33:12.456Z,551.15
2018-02-17T07:35:39.915Z,548.35
2018-02-17T07:38:07.406Z,553.05
2018-02-17T07:40:35.047Z,556.00
2018-02-17T07:43:02.523Z,562.88
2018-02-17T07:45:29.993Z,562.78
2018-02-17T07:47:57.846Z,562.28
2018-02-17T07:50:25.622Z,562.35
2018-02-17T07:52:53.182Z,561.38
2018-02-17T07:55:20.726Z,567.15
2018-02-17T07:57:48.187Z,564.53
2018-02-17T08:00:15.750Z,565.05
2018-02-17T08:02:43.306Z,572.85
2018-02-17T08:05:10.867Z,555.63
2018-02-17T08:07:38.423Z,568.17
2018-02-17T08:10:05.878Z,545.67
2018-02-17T08:12:33.337Z,549.47
2018-02-17T08:15:00.890Z,558.67
2018-02-17T08:17:28.347Z,550.63
2018-02-17T08:19:55.914Z,552.57
2018-02-17T08:22:23.450Z,547.37
2018-02-17T08:24:50.890Z,553.40
2018-02-17T08:27:19.098Z,569.73
2018-02-17T08:29:46.555Z,553.80
2018-02-17T08:32:14.014Z,548.73
2018-02-17T08:34:41.579Z,553.37
2018-02-17T08:37:09.023Z,558.00
2018-02-17T08:39:36.480Z,555.10
2018-02-17T08:42:03.930Z,563.27
2018-02-17T08:44:31.417Z,553.80
2018-02-17T08:46:58.862Z,552.70
2018-02-17T08:49:26.318Z,556.33
2018-02-17T08:51:53.872Z,550.03
2018-02-17T08:54:21.333Z,551.40
2018-02-17T08:56:48.783Z,557.30
2018-02-17T08:59:16.243Z,559.87
2018-02-17T09:01:43.699Z,566.70
2018-02-17T09:04:11.198Z,565.03
2018-02-17T09:06:38.823Z,568.57
2018-02-17T09:09:06.522Z,573.37
2018-02-17T09:11:34.743Z,571.40
2018-02-17T09:14:02.214Z,571.53
2018-02-17T09:16:29.674Z,567.50
2018-02-17T09:18:57.289Z,583.00
2018-02-17T09:21:24.686Z,567.27
2018-02-17T09:23:52.147Z,562.70
2018-02-17T09:26:19.784Z,569.00
2018-02-17T09:28:47.266Z,569.87
2018-02-17T09:31:14.772Z,575.30
2018-02-17T09:33:42.814Z,574.00
2018-02-17T09:36:10.266Z,585.77
2018-02-17T09:38:37.807Z,581.50
2018-02-17T09:41:05.259Z,592.80
2018-02-17T09:43:33.750Z,596.73
2018-02-17T09:46:01.354Z,604.50
2018-02-17T09:48:28.766Z,635.63
2018-02-17T09:50:56.319Z,628.73
2018-02-17T09:53:24.327Z,636.37
2018-02-17T09:55:52.545Z,626.53
2018-02-17T09:58:19.982Z,628.97
2018-02-17T10:00:47.450Z,639.37
2018-02-17T10:03:14.887Z,644.37
2018-02-17T10:05:43.108Z,641.93
2018-02-17T10:08:10.566Z,644.40
2018-02-17T10:10:38.023Z,658.93
2018-02-17T10:13:05.485Z,676.07
2018-02-17T10:15:33.032Z,667.43
2018-02-17T10:18:00.478Z,678.40
2018-02-17T10:20:27.948Z,696.80
2018-02-17T10:22:55.394Z,684.97
2018-02-17T10:25:22.834Z,700.60
2018-02-17T10:27:50.275Z,702.27
2018-02-17T10:30:17.723Z,707.13
2018-02-17T10:32:45.931Z,706.00
2018-02-17T10:35:13.384Z,699.40
2018-02-17T10:37:40.831Z,704.70
2018-02-17T10:40:08.280Z,697.93
2018-02-17T10:42:35.714Z,694.33
2018-02-17T10:45:03.959Z,709.27
2018-02-17T10:47:31.407Z,697.87
2018-02-17T10:49:58.864Z,697.10
2018-02-17T10:52:26.310Z,693.60
2018-02-17T10:54:53.763Z,688.80
2018-02-17T10:57:21.231Z,685.97
2018-02-17T10:59:48.682Z,688.97
2018-02-17T11:02:16.131Z,695.47
2018-02-17T11:04:43.570Z,690.17
2018-02-17T11:07:11.018Z,704.60
2018-02-17T11:09:38.467Z,693.67
2018-02-17T11:12:06.682Z,685.87
2018-02-17T11:14:34.131Z,697.50
2018-02-17T11:17:01.599Z,694.77
2018-02-17T11:19:29.039Z,702.43
2018-02-17T11:21:56.500Z,717.37
2018-02-17T11:24:23.938Z,722.73
2018-02-17T11:26:51.526Z,735.87
2018-02-17T11:29:18.970Z,747.37
2018-02-17T11:31:46.418Z,745.50
2018-02-17T11:34:13.867Z,740.43
2018-02-17T11:36:41.314Z,744.50
2018-02-17T11:39:08.764Z,733.43
2018-02-17T11:41:36.975Z,740.37
2018-02-17T11:44:04.448Z,737.33
2018-02-17T11:46:31.893Z,739.67
2018-02-17T11:48:59.369Z,745.83
2018-02-17T11:51:26.919Z,752.97
2018-02-17T11:53:54.358Z,770.93
2018-02-17T11:56:21.826Z,781.50
2018-02-17T11:58:49.292Z,793.50
2018-02-17T12:01:16.746Z,794.97
2018-02-17T12:03:44.186Z,802.27
2018-02-17T12:06:11.663Z,806.70
2018-02-17T12:08:39.112Z,815.93
2018-02-17T12:11:06.653Z,818.23
2018-02-17T12:13:34.135Z,816.13
2018-02-17T12:16:01.599Z,824.17
2018-02-17T12:18:29.049Z,826.73
2018-02-17T12:20:56.506Z,812.27
2018-02-17T12:23:24.068Z,803.37
2018-02-17T12:25:51.515Z,795.63
2018-02-17T12:28:18.966Z,775.50
2018-02-17T12:30:46.433Z,776.90
2018-02-17T12:33:14.505Z,786.90
2018-02-17T12:35:41.955Z,787.50
2018-02-17T12:38:09.421Z,774.33
2018-02-17T12:40:36.861Z,756.80
2018-02-17T12:43:04.332Z,765.67
2018-02-17T12:45:31.783Z,749.17
2018-02-17T12:47:59.239Z,756.33
2018-02-17T12:50:26.690Z,749.80
2018-02-17T12:52:54.148Z,761.53
2018-02-17T12:55:21.595Z,759.70
2018-02-17T12:57:49.052Z,786.00
2018-02-17T13:00:16.541Z,775.30
2018-02-17T13:02:44.091Z,769.20
2018-02-17T13:05:11.618Z,794.90
2018-02-17T13:07:39.066Z,797.20
2018-02-17T13:10:06.533Z,791.30
2018-02-17T13:12:33.995Z,759.30
2018-02-17T13:15:01.474Z,756.23
2018-02-17T13:17:28.930Z,758.03
2018-02-17T13:19:56.379Z,767.13
2018-02-17T13:22:24.333Z,761.83
2018-02-17T13:24:52.223Z,765.00
2018-02-17T13:27:19.677Z,759.57
2018-02-17T13:29:47.142Z,747.60
2018-02-17T13:32:14.593Z,787.57
2018-02-17T13:34:42.147Z,744.77
2018-02-17T13:37:09.586Z,678.60
2018-02-17T13:39:37.066Z,677.70
2018-02-17T13:42:04.527Z,692.33
2018-02-17T13:44:32.077Z,721.07
2018-02-17T13:46:59.540Z,701.67
2018-02-17T13:49:27.090Z,701.07
2018-02-17T13:51:54.531Z,702.53
2018-02-17T13:54:21.982Z,699.73
2018-02-17T13:56:49.462Z,702.60
2018-02-17T13:59:16.926Z,694.20
2018-02-17T14:01:44.377Z,701.03
2018-02-17T14:04:11.834Z,704.17
2018-02-17T14:06:39.274Z,708.33
2018-02-17T14:09:06.723Z,704.20
2018-02-17T14:11:34.164Z,716.03
2018-02-17T14:14:01.619Z,705.23
2018-02-17T14:16:29.843Z,696.50
2018-02-17T14:18:57.401Z,717.20
2018-02-17T14:21:24.856Z,696.77
2018-02-17T14:23:52.291Z,700.97
2018-02-17T14:26:19.770Z,694.20
2018-02-17T14:28:47.772Z,692.83
2018-02-17T14:31:15.190Z,690.83
2018-02-17T14:33:42.653Z,696.60
2018-02-17T14:36:10.102Z,684.43
2018-02-17T14:38:37.546Z,684.57
2018-02-17T14:41:05.027Z,678.83
2018-02-17T14:43:32.484Z,683.23
2018-02-17T14:46:00.031Z,675.03
2018-02-17T14:48:27.474Z,679.70
2018-02-17T14:50:54.953Z,680.03
2018-02-17T14:53:22.401Z,675.47
2018-02-17T14:55:49.964Z,679.37
2018-02-17T14:58:17.423Z,668.77
2018-02-17T15:00:45.520Z,680.03
2018-02-17T15:03:14.470Z,674.60
2018-02-17T15:05:41.963Z,690.47
2018-02-17T15:08:09.386Z,676.10
2018-02-17T15:10:36.960Z,675.00
2018-02-17T15:13:04.440Z,674.13
2018-02-17T15:15:31.855Z,678.97
2018-02-17T15:17:59.436Z,678.63
2018-02-17T15:20:26.887Z,679.60
2018-02-17T15:22:54.328Z,697.23
2018-02-17T15:25:21.773Z,680.07
2018-02-17T15:27:49.230Z,668.00
2018-02-17T15:30:16.662Z,670.47
2018-02-17T15:32:44.999Z,665.10
2018-02-17T15:35:13.264Z,669.97
2018-02-17T15:37:41.261Z,667.80
2018-02-17T15:40:10.221Z,662.50
2018-02-17T15:42:37.794Z,663.47
2018-02-17T15:45:05.258Z,667.20
2018-02-17T15:47:32.718Z,663.30
2018-02-17T15:50:00.672Z,657.00
2018-02-17T15:52:28.227Z,659.13
2018-02-17T15:54:55.887Z,657.80
2018-02-17T15:57:23.861Z,658.83
2018-02-17T15:59:51.301Z,655.13
2018-02-17T16:02:18.754Z,653.93
2018-02-17T16:04:46.202Z,655.13
2018-02-17T16:07:14.174Z,652.23
2018-02-17T16:09:41.624Z,650.87
2018-02-17T16:12:09.467Z,648.77
2018-02-17T16:14:37.678Z,654.37
2018-02-17T16:17:05.130Z,663.20
2018-02-17T16:19:32.580Z,657.03
2018-02-17T16:22:00.026Z,651.80
2018-02-17T16:24:27.474Z,658.80
2018-02-17T16:26:54.992Z,657.73
2018-02-17T16:29:22.441Z,655.97
2018-02-17T16:31:49.886Z,652.07
2018-02-17T16:34:17.334Z,649.67
2018-02-17T16:36:44.808Z,648.13
2018-02-17T16:39:12.250Z,649.30
2018-02-17T16:41:39.711Z,639.83
2018-02-17T16:44:07.173Z,639.47
2018-02-17T16:46:34.729Z,635.77
2018-02-17T16:49:02.203Z,634.63
2018-02-17T16:51:29.642Z,630.20
2018-02-17T16:53:57.134Z,626.47
2018-02-17T16:56:25.351Z,621.07
2018-02-17T16:58:52.841Z,627.73
2018-02-17T17:01:20.294Z,621.80
2018-02-17T17:03:47.750Z,624.60
2018-02-17T17:06:15.308Z,623.27
2018-02-17T17:08:42.758Z,622.33
2018-02-17T17:11:10.202Z,618.43
2018-02-17T17:13:37.687Z,619.47
2018-02-17T17:16:05.134Z,629.67
2018-02-17T17:18:33.202Z,622.27
2018-02-17T17:21:00.658Z,622.80
2018-02-17T17:23:28.230Z,618.07
2018-02-17T17:25:55.687Z,613.67
2018-02-17T17:28:23.138Z,624.47
2018-02-17T17:30:50.590Z,614.47
2018-02-17T17:33:18.162Z,616.37
2018-02-17T17:35:45.805Z,617.60
2018-02-17T17:38:13.276Z,617.53
2018-02-17T17:40:40.726Z,619.70
2018-02-17T17:43:08.292Z,611.87
2018-02-17T17:45:35.886Z,609.03
2018-02-17T17:48:04.107Z,607.77
2018-02-17T17:50:31.584Z,619.83
2018-02-17T17:52:59.114Z,609.57
2018-02-17T17:55:26.550Z,614.10
2018-02-17T17:57:54.051Z,613.07
2018-02-17T18:00:21.602Z,612.43
2018-02-17T18:02:49.062Z,607.13
2018-02-17T18:05:16.632Z,608.37
2018-02-17T18:07:44.884Z,606.05
2018-02-17T18:10:12.359Z,600.93
2018-02-17T18:12:39.826Z,602.50
2018-02-17T18:15:07.292Z,615.78
2018-02-17T18:17:34.760Z,604.85
2018-02-17T18:20:02.979Z,603.97
2018-02-17T18:22:30.444Z,604.95
2018-02-17T18:24:57.887Z,600.58
2018-02-17T18:27:25.351Z,605.95
2018-02-17T18:29:52.807Z,607.75
2018-02-17T18:32:20.323Z,602.05
2018-02-17T18:34:47.719Z,604.70
2018-02-17T18:37:15.186Z,601.45
2018-02-17T18:39:42.628Z,595.47
2018-02-17T18:42:10.104Z,598.83
2018-02-17T18:44:37.571Z,597.60
2018-02-17T18:47:05.838Z,597.60
2018-02-17T18:49:33.407Z,594.13
2018-02-17T18:52:00.854Z,593.97
2018-02-17T18:54:28.319Z,596.03
2018-02-17T18:56:55.788Z,592.30
2018-02-17T18:59:23.246Z,592.97
2018-02-17T19:01:50.690Z,592.72
2018-02-17T19:04:18.177Z,589.60
2018-02-17T19:06:45.616Z,606.33
2018-02-17T19:09:13.075Z,593.03
2018-02-17T19:11:40.534Z,587.85
2018-02-17T19:14:07.995Z,602.83
2018-02-17T19:16:35.538Z,592.75
2018-02-17T19:19:03.000Z,591.90
2018-02-17T19:21:30.547Z,591.45
2018-02-17T19:23:58.107Z,589.25
2018-02-17T19:26:25.554Z,592.47
2018-02-17T19:28:53.382Z,589.80
2018-02-17T19:31:20.835Z,587.67
2018-02-17T19:33:49.058Z,584.72
2018-02-17T19:36:16.511Z,589.33
2018-02-17T19:38:43.950Z,578.83
2018-02-17T19:41:11.395Z,581.60
2018-02-17T19:43:38.990Z,583.72
2018-02-17T19:46:06.541Z,581.42
2018-02-17T19:48:34.038Z,577.33
2018-02-17T19:51:01.442Z,579.00
2018-02-17T19:53:28.930Z,576.65
2018-02-17T19:55:56.454Z,579.17
2018-02-17T19:58:23.899Z,579.33
2018-02-17T20:00:51.751Z,581.08
2018-02-17T20:03:19.988Z,575.87
2018-02-17T20:05:47.440Z,578.80
2018-02-17T20:08:14.894Z,573.47
2018-02-17T20:10:42.452Z,578.95
2018-02-17T20:13:10.001Z,573.17
2018-02-17T20:15:37.463Z,569.67
2018-02-17T20:18:04.919Z,570.00
2018-02-17T20:20:33.195Z,572.70
2018-02-17T20:23:00.754Z,569.90
2018-02-17T20:25:28.206Z,570.67
2018-02-17T20:27:55.653Z,571.85
2018-02-17T20:30:23.115Z,573.60
2018-02-17T20:32:50.584Z,573.95
2018-02-17T20:35:18.043Z,573.00
2018-02-17T20:37:45.498Z,571.22
2018-02-17T20:40:12.952Z,570.05
2018-02-17T20:42:40.407Z,573.88
2018-02-17T20:45:07.858Z,568.60
2018-02-17T20:47:35.522Z,566.58
2018-02-17T20:50:03.091Z,573.88
2018-02-17T20:52:30.543Z,568.87
2018-02-17T20:54:58.103Z,566.50
2018-02-17T20:57:25.546Z,568.25
2018-02-17T20:59:53.025Z,572.03
2018-02-17T21:02:20.490Z,569.15
2018-02-17T21:04:47.939Z,568.35
2018-02-17T21:07:15.491Z,570.03
2018-02-17T21:09:43.047Z,568.30
2018-02-17T21:12:10.495Z,573.20
2018-02-17T21:14:38.054Z,568.25
2018-02-17T21:17:05.508Z,567.83
2018-02-17T21:19:32.978Z,569.08
2018-02-17T21:22:00.429Z,568.30
2018-02-17T21:24:27.892Z,565.88
2018-02-17T21:26:55.451Z,569.08
2018-02-17T21:29:23.007Z,575.22
2018-02-17T21:31:50.458Z,567.92
2018-02-17T21:34:17.922Z,568.17
2018-02-17T21:36:45.372Z,571.42
2018-02-17T21:39:12.943Z,566.78
2018-02-17T21:41:40.530Z,564.33
2018-02-17T21:44:07.946Z,571.28
2018-02-17T21:46:35.403Z,563.60
2018-02-17T21:49:02.863Z,564.22
2018-02-17T21:51:30.311Z,561.62
2018-02-17T21:53:57.768Z,564.10
2018-02-17T21:56:25.227Z,562.03
2018-02-17T21:58:52.674Z,567.97
2018-02-17T22:01:20.125Z,562.42
2018-02-17T22:03:47.603Z,563.12
2018-02-17T22:06:15.082Z,563.80
2018-02-17T22:08:42.540Z,561.55
2018-02-17T22:11:09.994Z,559.03
2018-02-17T22:13:37.541Z,556.90
2018-02-17T22:16:05.091Z,559.75
2018-02-17T22:18:32.654Z,563.15
2018-02-17T22:21:00.114Z,561.45
2018-02-17T22:23:27.748Z,562.80
2018-02-17T22:25:55.186Z,557.70
2018-02-17T22:28:22.687Z,562.75
2018-02-17T22:30:50.386Z,560.42
2018-02-17T22:33:18.621Z,560.60
2018-02-17T22:35:46.260Z,561.50
2018-02-17T22:38:13.690Z,560.70
2018-02-17T22:40:41.935Z,566.53
2018-02-17T22:43:09.391Z,562.15
2018-02-17T22:45:36.846Z,567.30
2018-02-17T22:48:04.299Z,564.03
2018-02-17T22:50:31.767Z,567.20
2018-02-17T22:52:59.212Z,564.90
2018-02-17T22:55:26.662Z,559.67
2018-02-17T22:57:54.219Z,563.05
2018-02-17T23:00:30.451Z,564.42
2018-02-17T23:02:57.938Z,556.03
2018-02-17T23:05:25.488Z,556.75
2018-02-17T23:07:52.950Z,558.40
2018-02-17T23:10:20.619Z,550.67
2018-02-17T23:12:48.779Z,553.55
2018-02-17T23:15:16.950Z,557.88
2018-02-17T23:17:44.398Z,555.47
2018-02-17T23:20:11.873Z,556.65
2018-02-17T23:22:39.319Z,551.17
2018-02-17T23:25:06.779Z,559.13
2018-02-17T23:27:34.238Z,557.70
2018-02-17T23:30:01.807Z,556.70
2018-02-17T23:32:29.250Z,552.75
2018-02-17T23:34:56.811Z,557.58
2018-02-17T23:37:24.267Z,560.40
2018-02-17T23:39:51.979Z,552.42
2018-02-17T23:42:20.235Z,554.30
2018-02-17T23:44:48.271Z,557.47
2018-02-17T23:47:15.715Z,557.80
2018-02-17T23:49:43.167Z,555.60
2018-02-17T23:52:10.653Z,556.03
2018-02-17T23:54:38.115Z,550.83
2018-02-17T23:57:05.643Z,555.05
2018-02-17T23:59:33.124Z,548.53
